createdAt,value
2023-04-20T09:55:17.703Z,9.39
2023-04-20T09:56:18.735Z,9.69
2023-04-20T09:57:18.619Z,10.10
2023-04-20T09:58:18.676Z,8.00
2023-04-20T09:59:18.586Z,7.19
2023-04-20T10:00:18.651Z,7.59
2023-04-20T10:01:18.653Z,8.19
2023-04-20T10:02:18.704Z,8.69
2023-04-20T10:03:18.813Z,8.60
2023-04-20T10:04:19.005Z,9.00
2023-04-20T10:05:18.524Z,9.00
2023-04-20T10:06:18.575Z,8.80
2023-04-20T10:07:18.500Z,8.69
2023-04-20T10:08:18.562Z,8.69
2023-04-20T10:09:18.479Z,7.90
2023-04-20T10:10:18.528Z,7.59
2023-04-20T10:11:18.464Z,8.00
2023-04-20T10:12:18.489Z,8.39
2023-04-20T10:13:18.450Z,7.40
2023-04-20T10:14:18.730Z,7.69
2023-04-20T10:15:18.432Z,7.69
2023-04-20T10:16:18.502Z,8.19
2023-04-20T10:17:18.615Z,7.69
2023-04-20T10:18:18.482Z,7.80
2023-04-20T10:19:18.364Z,8.10
2023-04-20T10:20:18.430Z,7.50
2023-04-20T10:21:18.341Z,8.19
2023-04-20T10:22:18.383Z,7.80
2023-04-20T10:23:18.335Z,7.69
2023-04-20T10:24:20.214Z,7.59
2023-04-20T10:25:18.301Z,7.59
2023-04-20T10:26:18.405Z,7.69
2023-04-20T10:27:18.272Z,7.30
2023-04-20T10:28:18.366Z,7.80
2023-04-20T10:29:18.250Z,8.89
2023-04-20T10:30:18.339Z,7.90
2023-04-20T10:31:18.251Z,8.10
2023-04-20T10:32:18.289Z,7.30
2023-04-20T10:33:18.328Z,7.19
2023-04-20T10:34:18.471Z,7.50
2023-04-20T10:35:18.193Z,7.30
2023-04-20T10:36:18.233Z,8.10
2023-04-20T10:37:18.158Z,7.50
2023-04-20T10:38:18.209Z,7.50
2023-04-20T10:39:19.757Z,7.50
2023-04-20T10:40:18.225Z,7.80
2023-04-20T10:41:18.113Z,7.59
2023-04-20T10:42:18.377Z,7.19
2023-04-20T10:43:18.108Z,7.50
2023-04-20T10:44:18.347Z,7.40
2023-04-20T10:45:18.069Z,7.00
2023-04-20T10:46:18.180Z,7.09
2023-04-20T10:47:18.052Z,7.09
2023-04-20T10:48:18.537Z,6.80
2023-04-20T10:49:18.279Z,6.40
2023-04-20T10:50:18.176Z,6.80
2023-04-20T10:51:17.997Z,7.00
2023-04-20T10:52:18.049Z,7.40
2023-04-20T10:53:17.976Z,7.19
2023-04-20T10:54:18.501Z,6.90
2023-04-20T10:55:17.950Z,6.50
2023-04-20T10:56:18.009Z,6.59
2023-04-20T10:57:17.931Z,6.30
2023-04-20T10:58:17.992Z,6.40
2023-04-20T10:59:18.315Z,5.80
2023-04-20T11:00:17.994Z,6.69
2023-04-20T11:01:18.014Z,6.69
2023-04-20T11:02:18.134Z,6.09
2023-04-20T11:03:17.958Z,6.30
2023-04-20T11:04:18.896Z,6.30
2023-04-20T11:05:17.986Z,6.09
2023-04-20T11:06:17.887Z,6.09
2023-04-20T11:07:17.829Z,6.40
2023-04-20T11:08:17.879Z,6.19
2023-04-20T11:09:17.926Z,6.90
2023-04-20T11:10:17.921Z,5.90
2023-04-20T11:11:17.772Z,6.69
2023-04-20T11:12:17.876Z,6.19
2023-04-20T11:13:17.826Z,6.40
2023-04-20T11:14:17.800Z,6.19
2023-04-20T11:15:17.735Z,6.69
2023-04-20T11:16:17.853Z,6.09
2023-04-20T11:17:17.795Z,5.80
2023-04-20T11:18:17.801Z,6.40
2023-04-20T11:19:17.877Z,6.50
2023-04-20T11:20:17.859Z,5.90
2023-04-20T11:21:17.656Z,5.90
2023-04-20T11:22:17.697Z,6.00
2023-04-20T11:23:17.633Z,5.69
2023-04-20T11:24:17.672Z,6.00
2023-04-20T11:25:17.611Z,5.90
2023-04-20T11:26:17.677Z,6.00
2023-04-20T11:27:17.588Z,6.00
2023-04-20T11:28:17.626Z,5.90
2023-04-20T11:29:17.832Z,6.40
2023-04-20T11:30:17.606Z,5.80
2023-04-20T11:31:17.686Z,5.80
2023-04-20T11:32:17.670Z,5.90
2023-04-20T11:33:17.575Z,5.80
2023-04-20T11:34:17.555Z,5.59
2023-04-20T11:35:17.499Z,5.59
2023-04-20T11:36:17.544Z,5.59
2023-04-20T11:37:17.477Z,6.19
2023-04-20T11:38:17.523Z,5.30
2023-04-20T11:39:17.608Z,5.59
2023-04-20T11:40:17.503Z,5.40
2023-04-20T11:41:17.430Z,5.69
2023-04-20T11:42:17.486Z,6.19
2023-04-20T11:43:17.403Z,6.00
2023-04-20T11:44:17.449Z,5.59
2023-04-20T11:45:17.383Z,5.40
2023-04-20T11:46:17.658Z,5.59
2023-04-20T11:47:17.351Z,5.90
2023-04-20T11:48:17.397Z,5.19
2023-04-20T11:49:17.566Z,5.69
2023-04-20T11:50:17.388Z,5.80
2023-04-20T11:51:17.314Z,5.19
2023-04-20T11:52:17.380Z,5.80
2023-04-20T11:53:17.288Z,5.19
2023-04-20T11:54:17.327Z,6.09
2023-04-20T11:55:17.319Z,5.30
2023-04-20T11:56:17.322Z,5.50
2023-04-20T11:57:17.248Z,5.80
2023-04-20T11:58:17.282Z,5.80
2023-04-20T11:59:17.544Z,5.30
2023-04-20T12:00:17.291Z,5.40
2023-04-20T12:01:17.195Z,5.50
2023-04-20T12:02:17.337Z,5.50
2023-04-20T12:03:17.364Z,5.40
2023-04-20T12:04:17.773Z,5.09
2023-04-20T12:05:17.186Z,5.30
2023-04-20T12:06:17.188Z,5.40
2023-04-20T12:07:17.131Z,5.30
2023-04-20T12:08:17.191Z,5.30
2023-04-20T12:09:17.372Z,5.50
2023-04-20T12:10:17.158Z,5.40
2023-04-20T12:11:17.080Z,5.19
2023-04-20T12:12:17.167Z,5.40
2023-04-20T12:13:17.063Z,5.40
2023-04-20T12:14:17.110Z,4.69
2023-04-20T12:15:17.039Z,4.59
2023-04-20T12:16:17.121Z,5.19
2023-04-20T12:17:17.010Z,4.90
2023-04-20T12:18:17.071Z,5.30
2023-04-20T12:19:17.380Z,5.30
2023-04-20T12:20:17.034Z,4.90
2023-04-20T12:21:16.979Z,5.00
2023-04-20T12:22:18.072Z,5.00
2023-04-20T12:23:17.027Z,4.69
2023-04-20T12:24:17.044Z,5.00
2023-04-20T12:25:16.908Z,5.09
2023-04-20T12:26:16.985Z,5.30
2023-04-20T12:27:16.902Z,4.90
2023-04-20T12:28:16.964Z,4.59
2023-04-20T12:29:17.120Z,5.00
2023-04-20T12:30:16.932Z,5.00
2023-04-20T12:31:16.885Z,4.90
2023-04-20T12:32:16.915Z,5.09
2023-04-20T12:33:16.818Z,4.40
2023-04-20T12:34:17.158Z,5.09
2023-04-20T12:35:16.799Z,5.00
2023-04-20T12:36:16.880Z,5.00
2023-04-20T12:37:16.816Z,4.50
2023-04-20T12:38:16.846Z,4.69
2023-04-20T12:39:16.752Z,4.90
2023-04-20T12:40:16.825Z,4.50
2023-04-20T12:41:16.742Z,5.19
2023-04-20T12:42:16.800Z,4.50
2023-04-20T12:43:16.700Z,5.00
2023-04-20T12:44:16.914Z,4.80
2023-04-20T12:45:16.679Z,5.00
2023-04-20T12:46:16.812Z,4.69
2023-04-20T12:47:16.656Z,4.69
2023-04-20T12:48:16.844Z,4.80
2023-04-20T12:49:16.914Z,4.90
2023-04-20T12:50:16.698Z,4.40
2023-04-20T12:51:16.609Z,4.50
2023-04-20T12:52:17.714Z,4.80
2023-04-20T12:53:16.666Z,4.59
2023-04-20T12:54:16.784Z,4.90
2023-04-20T12:55:16.637Z,4.80
2023-04-20T12:56:16.584Z,4.40
2023-04-20T12:57:16.603Z,4.40
2023-04-20T12:58:16.536Z,4.30
2023-04-20T12:59:16.590Z,5.00
2023-04-20T13:00:16.572Z,4.80
2023-04-20T13:01:16.586Z,4.50
2023-04-20T13:02:16.583Z,4.50
2023-04-20T13:03:16.642Z,4.19
2023-04-20T13:04:16.962Z,5.09
2023-04-20T13:05:16.538Z,4.90
2023-04-20T13:06:16.464Z,4.50
2023-04-20T13:07:16.498Z,4.90
2023-04-20T13:08:16.426Z,4.50
2023-04-20T13:09:16.477Z,4.09
2023-04-20T13:10:16.436Z,4.59
2023-04-20T13:11:16.597Z,5.09
2023-04-20T13:12:16.393Z,4.19
2023-04-20T13:13:16.434Z,4.50
2023-04-20T13:14:16.844Z,4.19
2023-04-20T13:15:18.868Z,4.50
2023-04-20T13:16:16.349Z,4.30
2023-04-20T13:17:16.403Z,4.80
2023-04-20T13:18:16.319Z,4.09
2023-04-20T13:19:16.364Z,4.90
2023-04-20T13:20:16.284Z,4.40
2023-04-20T13:21:16.335Z,4.09
2023-04-20T13:22:18.820Z,4.30
2023-04-20T13:23:16.316Z,4.40
2023-04-20T13:24:16.429Z,4.09
2023-04-20T13:25:16.294Z,4.30
2023-04-20T13:26:16.229Z,4.50
2023-04-20T13:27:16.264Z,3.90
2023-04-20T13:28:16.205Z,4.40
2023-04-20T13:29:16.496Z,4.00
2023-04-20T13:30:16.177Z,4.09
2023-04-20T13:31:16.306Z,4.50
2023-04-20T13:32:16.152Z,4.59
2023-04-20T13:33:16.238Z,4.69
2023-04-20T13:34:16.968Z,4.09
2023-04-20T13:35:16.178Z,4.30
2023-04-20T13:36:16.106Z,4.30
2023-04-20T13:37:16.176Z,4.30
2023-04-20T13:38:16.087Z,4.19
2023-04-20T13:39:16.390Z,3.79
2023-04-20T13:40:16.092Z,4.00
2023-04-20T13:41:16.134Z,3.90
2023-04-20T13:42:16.040Z,4.19
2023-04-20T13:43:16.081Z,4.00
2023-04-20T13:44:16.327Z,3.90
2023-04-20T13:45:16.069Z,4.30
2023-04-20T13:46:16.015Z,4.30
2023-04-20T13:47:16.058Z,4.19
2023-04-20T13:48:15.964Z,4.00
2023-04-20T13:49:16.028Z,4.00
2023-04-20T13:50:15.968Z,4.00
2023-04-20T13:51:16.001Z,4.19
2023-04-20T13:52:15.927Z,4.09
2023-04-20T13:53:15.982Z,3.70
2023-04-20T13:54:16.079Z,4.00
2023-04-20T13:55:15.959Z,3.70
2023-04-20T13:56:15.883Z,3.90
2023-04-20T13:57:15.937Z,4.19
2023-04-20T13:58:15.861Z,4.09
2023-04-20T13:59:16.044Z,4.19
2023-04-20T14:00:15.839Z,4.09
2023-04-20T14:01:15.958Z,3.90
2023-04-20T14:02:15.858Z,3.90
2023-04-20T14:03:16.160Z,3.90
2023-04-20T14:04:15.890Z,4.00
2023-04-20T14:05:15.930Z,4.30
2023-04-20T14:06:15.793Z,4.09
2023-04-20T14:07:15.908Z,4.00
2023-04-20T14:08:15.754Z,4.09
2023-04-20T14:09:15.804Z,4.30
2023-04-20T14:10:15.741Z,3.90
2023-04-20T14:11:15.793Z,3.90
2023-04-20T14:12:15.709Z,4.09
2023-04-20T14:13:15.757Z,3.59
2023-04-20T14:14:16.039Z,3.79
2023-04-20T14:15:15.753Z,4.00
2023-04-20T14:16:15.688Z,3.40
2023-04-20T14:17:15.717Z,3.59
2023-04-20T14:18:15.644Z,3.79
2023-04-20T14:19:15.690Z,3.59
2023-04-20T14:20:15.625Z,3.59
2023-04-20T14:21:15.670Z,4.09
2023-04-20T14:22:15.598Z,3.59
2023-04-20T14:23:15.698Z,3.79
2023-04-20T14:24:15.859Z,3.70
2023-04-20T14:25:15.629Z,3.70
2023-04-20T14:26:15.556Z,3.59
2023-04-20T14:27:15.595Z,3.50
2023-04-20T14:28:15.539Z,3.90
2023-04-20T14:29:15.578Z,4.00
2023-04-20T14:30:15.540Z,3.29
2023-04-20T14:31:15.657Z,3.59
2023-04-20T14:32:15.504Z,3.50
2023-04-20T14:33:15.542Z,3.40
2023-04-20T14:34:15.478Z,3.59
2023-04-20T14:35:15.509Z,3.50
2023-04-20T14:36:15.453Z,3.70
2023-04-20T14:37:15.668Z,3.90
2023-04-20T14:38:15.422Z,3.79
2023-04-20T14:39:15.485Z,3.70
2023-04-20T14:40:15.412Z,4.30
2023-04-20T14:41:15.524Z,3.79
2023-04-20T14:42:15.377Z,3.79
2023-04-20T14:43:15.466Z,3.90
2023-04-20T14:44:15.465Z,3.70
2023-04-20T14:45:15.418Z,3.70
2023-04-20T14:46:15.365Z,3.70
2023-04-20T14:47:15.407Z,3.70
2023-04-20T14:48:15.317Z,3.59
2023-04-20T14:49:15.400Z,3.59
2023-04-20T14:50:15.296Z,3.50
2023-04-20T14:51:15.340Z,3.90
2023-04-20T14:52:15.269Z,3.79
2023-04-20T14:53:15.309Z,3.50
2023-04-20T14:54:15.310Z,3.50
2023-04-20T14:55:15.319Z,3.59
2023-04-20T14:56:15.247Z,3.79
2023-04-20T14:57:15.258Z,3.50
2023-04-20T14:58:15.204Z,3.70
2023-04-20T14:59:15.245Z,3.50
2023-04-20T15:00:15.178Z,3.79
2023-04-20T15:01:15.256Z,3.59
2023-04-20T15:02:15.277Z,3.50
2023-04-20T15:03:15.289Z,3.90
2023-04-20T15:04:15.239Z,3.59
2023-04-20T15:05:15.276Z,3.50
2023-04-20T15:06:15.103Z,3.40
2023-04-20T15:07:15.188Z,3.59
2023-04-20T15:08:15.090Z,3.50
2023-04-20T15:09:15.126Z,3.50
2023-04-20T15:10:15.064Z,3.59
2023-04-20T15:11:15.124Z,3.59
2023-04-20T15:12:15.052Z,3.79
2023-04-20T15:13:15.079Z,3.59
2023-04-20T15:14:15.119Z,3.20
2023-04-20T15:15:15.071Z,3.40
2023-04-20T15:16:15.031Z,3.50
2023-04-20T15:17:15.041Z,3.59
2023-04-20T15:18:14.976Z,3.50
2023-04-20T15:19:15.035Z,3.40
2023-04-20T15:20:14.964Z,3.29
2023-04-20T15:21:14.988Z,3.79
2023-04-20T15:22:14.948Z,3.09
2023-04-20T15:23:14.969Z,3.50
2023-04-20T15:24:14.923Z,3.70
2023-04-20T15:25:14.962Z,3.40
2023-04-20T15:26:14.885Z,3.00
2023-04-20T15:27:14.924Z,3.40
2023-04-20T15:28:14.861Z,2.90
2023-04-20T15:29:14.918Z,3.09
2023-04-20T15:30:14.843Z,3.50
2023-04-20T15:31:14.885Z,3.29
2023-04-20T15:32:14.939Z,3.40
2023-04-20T15:33:14.935Z,3.50
2023-04-20T15:34:14.795Z,3.00
2023-04-20T15:35:14.851Z,3.29
2023-04-20T15:36:14.770Z,3.40
2023-04-20T15:37:14.833Z,3.29
2023-04-20T15:38:14.751Z,3.70
2023-04-20T15:39:14.800Z,3.29
2023-04-20T15:40:14.724Z,3.09
2023-04-20T15:41:15.039Z,3.09
2023-04-20T15:42:14.707Z,3.29
2023-04-20T15:43:14.764Z,3.20
2023-04-20T15:44:14.688Z,3.00
2023-04-20T15:45:14.719Z,3.09
2023-04-20T15:46:14.811Z,3.29
2023-04-20T15:47:14.732Z,3.29
2023-04-20T15:48:14.671Z,3.09
2023-04-20T15:49:14.675Z,3.50
2023-04-20T15:50:14.761Z,3.00
2023-04-20T15:51:14.592Z,3.09
2023-04-20T15:52:14.673Z,3.09
2023-04-20T15:53:14.567Z,3.00
2023-04-20T15:54:14.646Z,3.50
2023-04-20T15:55:14.546Z,3.00
2023-04-20T15:56:14.631Z,3.29
2023-04-20T15:57:14.525Z,2.90
2023-04-20T15:58:14.586Z,3.29
2023-04-20T15:59:14.499Z,3.00
2023-04-20T16:00:14.592Z,3.09
2023-04-20T16:01:14.509Z,3.00
2023-04-20T16:02:14.635Z,2.90
2023-04-20T16:03:14.614Z,3.29
2023-04-20T16:04:14.688Z,3.20
2023-04-20T16:05:14.434Z,3.20
2023-04-20T16:06:14.536Z,3.00
2023-04-20T16:07:14.411Z,2.90
2023-04-20T16:08:14.480Z,3.20
2023-04-20T16:09:14.398Z,3.00
2023-04-20T16:10:14.464Z,3.00
2023-04-20T16:11:14.364Z,3.29
2023-04-20T16:12:14.442Z,2.90
2023-04-20T16:13:14.338Z,3.00
2023-04-20T16:14:14.413Z,3.00
2023-04-20T16:15:14.317Z,2.90
2023-04-20T16:16:14.442Z,2.90
2023-04-20T16:17:14.289Z,3.00
2023-04-20T16:18:14.371Z,3.20
2023-04-20T16:19:14.273Z,3.29
2023-04-20T16:20:14.519Z,2.79
2023-04-20T16:21:14.252Z,3.09
2023-04-20T16:22:14.345Z,3.20
2023-04-20T16:23:14.227Z,2.90
2023-04-20T16:24:14.297Z,2.90
2023-04-20T16:25:14.210Z,3.00
2023-04-20T16:26:14.275Z,3.20
2023-04-20T16:27:14.184Z,3.20
2023-04-20T16:28:14.252Z,2.90
2023-04-20T16:29:14.179Z,3.00
2023-04-20T16:30:14.248Z,3.00
2023-04-20T16:31:14.229Z,2.90
2023-04-20T16:32:14.215Z,2.79
2023-04-20T16:33:14.183Z,3.29
2023-04-20T16:34:14.192Z,3.29
2023-04-20T16:35:14.114Z,2.90
2023-04-20T16:36:14.172Z,3.20
2023-04-20T16:37:14.089Z,3.20
2023-04-20T16:38:14.153Z,2.90
2023-04-20T16:39:14.057Z,3.20
2023-04-20T16:40:14.136Z,2.79
2023-04-20T16:41:14.053Z,3.20
2023-04-20T16:42:14.102Z,3.09
2023-04-20T16:43:14.024Z,2.79
2023-04-20T16:44:14.183Z,3.00
2023-04-20T16:45:14.004Z,2.59
2023-04-20T16:46:14.081Z,3.00
2023-04-20T16:47:13.981Z,3.29
2023-04-20T16:48:14.091Z,2.79
2023-04-20T16:49:13.955Z,2.90
2023-04-20T16:50:14.014Z,2.79
2023-04-20T16:51:13.941Z,2.70
2023-04-20T16:52:13.988Z,2.59
2023-04-20T16:53:13.917Z,3.20
2023-04-20T16:54:13.965Z,3.20
2023-04-20T16:55:13.892Z,2.90
2023-04-20T16:56:13.944Z,3.20
2023-04-20T16:57:13.879Z,2.79
2023-04-20T16:58:13.920Z,2.79
2023-04-20T16:59:13.856Z,2.79
2023-04-20T17:00:13.889Z,3.00
2023-04-20T17:01:13.908Z,2.79
2023-04-20T17:02:14.104Z,3.09
2023-04-20T17:03:13.981Z,3.09
2023-04-20T17:04:14.022Z,2.59
2023-04-20T17:05:13.794Z,3.20
2023-04-20T17:06:13.826Z,2.79
2023-04-20T17:07:13.979Z,2.50
2023-04-20T17:08:13.814Z,3.20
2023-04-20T17:09:13.737Z,3.00
2023-04-20T17:10:13.797Z,2.79
2023-04-20T17:11:13.734Z,2.70
2023-04-20T17:12:13.767Z,3.00
2023-04-20T17:13:13.697Z,3.00
2023-04-20T17:14:13.753Z,3.70
2023-04-20T17:15:13.681Z,2.79
2023-04-20T17:16:13.752Z,2.70
2023-04-20T17:17:13.654Z,2.90
2023-04-20T17:18:13.703Z,2.70
2023-04-20T17:19:13.640Z,2.70
2023-04-20T17:20:13.678Z,3.20
2023-04-20T17:21:13.614Z,2.79
2023-04-20T17:22:13.801Z,2.70
2023-04-20T17:23:13.586Z,2.70
2023-04-20T17:24:13.636Z,2.90
2023-04-20T17:25:13.569Z,2.70
2023-04-20T17:26:13.609Z,2.90
2023-04-20T17:27:13.556Z,2.79
2023-04-20T17:28:13.588Z,2.90
2023-04-20T17:29:13.531Z,2.70
2023-04-20T17:30:13.568Z,2.70
2023-04-20T17:31:13.496Z,3.00
2023-04-20T17:32:13.563Z,2.90
2023-04-20T17:33:13.476Z,2.79
2023-04-20T17:34:13.524Z,3.00
2023-04-20T17:35:13.499Z,2.90
2023-04-20T17:36:13.487Z,2.70
2023-04-20T17:37:13.418Z,2.90
2023-04-20T17:38:13.471Z,2.79
2023-04-20T17:39:13.398Z,2.70
2023-04-20T17:40:13.440Z,2.70
2023-04-20T17:41:13.375Z,2.90
2023-04-20T17:42:13.430Z,2.79
2023-04-20T17:43:13.353Z,2.70
2023-04-20T17:44:13.394Z,2.90
2023-04-20T17:45:13.336Z,2.79
2023-04-20T17:46:13.414Z,2.79
2023-04-20T17:47:13.306Z,2.59
2023-04-20T17:48:13.379Z,2.50
2023-04-20T17:49:13.294Z,2.79
2023-04-20T17:50:13.332Z,2.59
2023-04-20T17:51:13.261Z,2.50
2023-04-20T17:52:13.409Z,2.79
2023-04-20T17:53:13.239Z,2.59
2023-04-20T17:54:13.294Z,2.79
2023-04-20T17:55:13.228Z,2.90
2023-04-20T17:56:13.265Z,2.79
2023-04-20T17:57:13.193Z,2.70
2023-04-20T17:58:13.238Z,3.00
2023-04-20T17:59:13.170Z,2.90
2023-04-20T18:00:13.246Z,2.50
2023-04-20T18:01:13.187Z,2.79
2023-04-20T18:02:13.310Z,2.79
2023-04-20T18:03:13.350Z,2.70
2023-04-20T18:04:13.271Z,2.59
2023-04-20T18:05:13.096Z,2.70
2023-04-20T18:06:13.140Z,2.70
2023-04-20T18:07:13.146Z,2.70
2023-04-20T18:08:13.119Z,2.70
2023-04-20T18:09:13.067Z,2.70
2023-04-20T18:10:13.104Z,2.70
2023-04-20T18:11:13.031Z,2.79
2023-04-20T18:12:13.080Z,2.59
2023-04-20T18:13:13.016Z,2.59
2023-04-20T18:14:13.133Z,2.90
2023-04-20T18:15:13.044Z,2.79
2023-04-20T18:16:13.077Z,2.90
2023-04-20T18:17:12.968Z,2.79
2023-04-20T18:18:13.008Z,2.70
2023-04-20T18:19:12.957Z,2.50
2023-04-20T18:20:12.980Z,2.50
2023-04-20T18:21:12.924Z,3.00
2023-04-20T18:22:12.966Z,2.90
2023-04-20T18:23:12.894Z,2.70
2023-04-20T18:24:12.934Z,2.70
2023-04-20T18:25:12.873Z,2.70
2023-04-20T18:26:13.010Z,2.59
2023-04-20T18:27:12.850Z,2.59
2023-04-20T18:28:12.942Z,2.59
2023-04-20T18:29:12.828Z,2.70
2023-04-20T18:30:12.876Z,2.70
2023-04-20T18:31:12.817Z,2.70
2023-04-20T18:32:12.848Z,2.70
2023-04-20T18:33:12.815Z,2.59
2023-04-20T18:34:12.873Z,2.70
2023-04-20T18:35:12.752Z,2.40
2023-04-20T18:36:12.807Z,2.50
2023-04-20T18:37:12.735Z,2.50
2023-04-20T18:38:12.781Z,2.50
2023-04-20T18:39:12.710Z,2.40
2023-04-20T18:40:14.794Z,2.59
2023-04-20T18:41:12.689Z,2.59
2023-04-20T18:42:12.749Z,2.59
2023-04-20T18:43:12.896Z,2.70
2023-04-20T18:44:12.739Z,2.59
2023-04-20T18:45:12.769Z,2.70
2023-04-20T18:46:12.698Z,2.70
2023-04-20T18:47:12.736Z,3.00
2023-04-20T18:48:12.697Z,2.79
2023-04-20T18:49:12.730Z,3.00
2023-04-20T18:50:12.627Z,2.79
2023-04-20T18:51:12.693Z,2.79
2023-04-20T18:52:12.614Z,2.59
2023-04-20T18:53:12.669Z,2.59
2023-04-20T18:54:12.584Z,2.40
2023-04-20T18:55:12.656Z,2.70
2023-04-20T18:56:12.560Z,2.50
2023-04-20T18:57:12.632Z,2.70
2023-04-20T18:58:12.536Z,2.90
2023-04-20T18:59:12.602Z,2.50
2023-04-20T19:00:12.525Z,2.59
2023-04-20T19:01:12.643Z,2.59
2023-04-20T19:02:12.532Z,2.79
2023-04-20T19:03:12.825Z,2.50
2023-04-20T19:04:12.559Z,2.50
2023-04-20T19:05:12.544Z,2.70
2023-04-20T19:06:12.442Z,2.59
2023-04-20T19:07:12.532Z,2.50
2023-04-20T19:08:12.421Z,2.50
2023-04-20T19:09:12.481Z,2.50
2023-04-20T19:10:12.392Z,2.59
2023-04-20T19:11:12.494Z,2.59
2023-04-20T19:12:12.376Z,2.40
2023-04-20T19:13:12.452Z,2.40
2023-04-20T19:14:12.405Z,2.59
2023-04-20T19:15:12.429Z,2.59
2023-04-20T19:16:12.386Z,2.50
2023-04-20T19:17:12.400Z,2.70
2023-04-20T19:18:12.333Z,2.50
2023-04-20T19:19:12.375Z,2.50
2023-04-20T19:20:12.282Z,2.59
2023-04-20T19:21:12.345Z,2.40
2023-04-20T19:22:12.258Z,2.40
2023-04-20T19:23:12.324Z,2.40
2023-04-20T19:24:12.252Z,2.40
2023-04-20T19:25:12.308Z,2.79
2023-04-20T19:26:12.212Z,2.40
2023-04-20T19:27:12.275Z,2.50
2023-04-20T19:28:12.233Z,2.29
2023-04-20T19:29:12.279Z,2.29
2023-04-20T19:30:12.199Z,2.50
2023-04-20T19:31:12.286Z,2.50
2023-04-20T19:32:12.205Z,2.50
2023-04-20T19:33:12.365Z,2.70
2023-04-20T19:34:12.127Z,2.79
2023-04-20T19:35:12.187Z,2.40
2023-04-20T19:36:12.101Z,2.70
2023-04-20T19:37:12.183Z,2.70
2023-04-20T19:38:12.087Z,2.40
2023-04-20T19:39:12.153Z,2.40
2023-04-20T19:40:12.056Z,2.50
2023-04-20T19:41:12.149Z,2.50
2023-04-20T19:42:12.042Z,2.50
2023-04-20T19:43:12.108Z,2.50
2023-04-20T19:44:12.050Z,2.59
2023-04-20T19:45:12.095Z,2.50
2023-04-20T19:46:12.091Z,2.29
2023-04-20T19:47:12.069Z,2.70
2023-04-20T19:48:12.000Z,2.70
2023-04-20T19:49:12.039Z,2.79
2023-04-20T19:50:11.948Z,2.59
2023-04-20T19:51:12.016Z,2.70
2023-04-20T19:52:11.922Z,2.50
2023-04-20T19:53:12.013Z,2.40
2023-04-20T19:54:11.905Z,2.29
2023-04-20T19:55:11.982Z,2.40
2023-04-20T19:56:11.875Z,2.50
2023-04-20T19:57:11.953Z,2.50
2023-04-20T19:58:11.851Z,2.29
2023-04-20T19:59:11.934Z,2.40
2023-04-20T20:00:11.833Z,2.50
2023-04-20T20:01:11.918Z,2.50
2023-04-20T20:02:11.864Z,2.50
2023-04-20T20:03:12.094Z,2.50
2023-04-20T20:04:12.144Z,2.50
2023-04-20T20:05:11.791Z,2.79
2023-04-20T20:06:11.830Z,2.40
2023-04-20T20:07:11.762Z,2.50
2023-04-20T20:08:11.857Z,2.40
2023-04-20T20:09:11.741Z,2.40
2023-04-20T20:10:11.798Z,2.50
2023-04-20T20:11:11.744Z,2.29
2023-04-20T20:12:11.760Z,2.70
2023-04-20T20:13:11.697Z,2.79
2023-04-20T20:14:11.747Z,2.59
2023-04-20T20:15:11.678Z,2.40
2023-04-20T20:16:11.747Z,2.20
2023-04-20T20:17:11.691Z,2.40
2023-04-20T20:18:11.734Z,2.29
2023-04-20T20:19:11.623Z,2.50
2023-04-20T20:20:11.692Z,2.50
2023-04-20T20:21:11.597Z,2.29
2023-04-20T20:22:11.653Z,2.40
2023-04-20T20:23:11.578Z,2.29
2023-04-20T20:24:11.617Z,2.40
2023-04-20T20:25:11.553Z,2.40
2023-04-20T20:26:11.591Z,2.50
2023-04-20T20:27:11.534Z,2.29
2023-04-20T20:28:11.587Z,2.29
2023-04-20T20:29:11.538Z,2.59
2023-04-20T20:30:11.555Z,2.20
2023-04-20T20:31:11.521Z,2.59
2023-04-20T20:32:11.521Z,2.50
2023-04-20T20:33:11.459Z,2.50
2023-04-20T20:34:11.495Z,2.50
2023-04-20T20:35:11.451Z,2.29
2023-04-20T20:36:11.477Z,2.59
2023-04-20T20:37:11.415Z,2.20
2023-04-20T20:38:11.467Z,2.40
2023-04-20T20:39:11.394Z,2.50
2023-04-20T20:40:11.437Z,2.40
2023-04-20T20:41:11.370Z,2.29
2023-04-20T20:42:11.421Z,2.40
2023-04-20T20:43:11.345Z,2.40
2023-04-20T20:44:11.399Z,2.59
2023-04-20T20:45:11.323Z,2.50
2023-04-20T20:46:11.379Z,2.40
2023-04-20T20:47:11.299Z,2.70
2023-04-20T20:48:11.350Z,2.59
2023-04-20T20:49:11.276Z,2.50
2023-04-20T20:50:11.344Z,2.50
2023-04-20T20:51:11.254Z,2.50
2023-04-20T20:52:11.297Z,2.40
2023-04-20T20:53:11.262Z,2.29
2023-04-20T20:54:11.281Z,2.59
2023-04-20T20:55:11.214Z,2.29
2023-04-20T20:56:11.250Z,2.40
2023-04-20T20:57:11.167Z,2.40
2023-04-20T20:58:11.238Z,2.29
2023-04-20T20:59:11.156Z,2.29
2023-04-20T21:00:11.232Z,2.70
2023-04-20T21:01:11.205Z,2.40
2023-04-20T21:02:11.284Z,2.29
2023-04-20T21:03:11.268Z,2.09
2023-04-20T21:04:11.446Z,2.59
2023-04-20T21:05:11.096Z,2.40
2023-04-20T21:06:11.144Z,2.40
2023-04-20T21:07:11.056Z,2.40
2023-04-20T21:08:11.137Z,2.50
2023-04-20T21:09:11.058Z,2.50
2023-04-20T21:10:11.097Z,2.40
2023-04-20T21:11:11.013Z,2.50
2023-04-20T21:12:11.087Z,2.59
2023-04-20T21:13:10.983Z,2.20
2023-04-20T21:14:11.044Z,2.59
2023-04-20T21:15:10.962Z,2.40
2023-04-20T21:16:11.093Z,2.29
2023-04-20T21:17:10.937Z,2.40
2023-04-20T21:18:11.046Z,2.40
2023-04-20T21:19:10.913Z,2.29
2023-04-20T21:20:10.991Z,2.50
2023-04-20T21:21:10.894Z,2.29
2023-04-20T21:22:10.949Z,2.20
2023-04-20T21:23:10.893Z,2.40
2023-04-20T21:24:10.921Z,2.50
2023-04-20T21:25:10.846Z,2.29
2023-04-20T21:26:10.907Z,2.50
2023-04-20T21:27:10.826Z,2.40
2023-04-20T21:28:10.887Z,2.20
2023-04-20T21:29:10.800Z,2.50
2023-04-20T21:30:10.869Z,2.40
2023-04-20T21:31:10.791Z,2.29
2023-04-20T21:32:10.953Z,2.20
2023-04-20T21:33:10.807Z,2.40
2023-04-20T21:34:10.807Z,2.29
2023-04-20T21:35:10.735Z,2.29
2023-04-20T21:36:10.801Z,2.29
2023-04-20T21:37:10.709Z,2.29
2023-04-20T21:38:10.776Z,2.50
2023-04-20T21:39:10.684Z,2.29
2023-04-20T21:40:10.769Z,2.09
2023-04-20T21:41:10.656Z,2.50
2023-04-20T21:42:10.729Z,2.40
2023-04-20T21:43:10.638Z,2.20
2023-04-20T21:44:10.692Z,2.40
2023-04-20T21:45:10.615Z,2.20
2023-04-20T21:46:10.743Z,2.40
2023-04-20T21:47:10.600Z,2.50
2023-04-20T21:48:11.675Z,2.29
2023-04-20T21:49:10.647Z,2.50
2023-04-20T21:50:10.574Z,2.09
2023-04-20T21:51:10.610Z,2.50
2023-04-20T21:52:10.543Z,2.29
2023-04-20T21:53:10.595Z,2.29
2023-04-20T21:54:10.517Z,2.20
2023-04-20T21:55:10.574Z,2.50
2023-04-20T21:56:10.488Z,2.50
2023-04-20T21:57:10.554Z,2.40
2023-04-20T21:58:10.473Z,2.29
2023-04-20T21:59:10.513Z,2.29
2023-04-20T22:00:10.453Z,2.29
2023-04-20T22:01:10.535Z,2.29
2023-04-20T22:02:10.561Z,2.40
2023-04-20T22:03:10.573Z,2.29
2023-04-20T22:04:10.633Z,2.40
2023-04-20T22:05:10.505Z,2.40
2023-04-20T22:06:10.375Z,2.20
2023-04-20T22:07:10.424Z,2.40
2023-04-20T22:08:10.348Z,2.40
2023-04-20T22:09:10.395Z,2.40
2023-04-20T22:10:10.332Z,2.59
2023-04-20T22:11:10.376Z,2.29
2023-04-20T22:12:10.304Z,2.29
2023-04-20T22:13:10.364Z,2.50
2023-04-20T22:14:10.288Z,2.40
2023-04-20T22:15:10.337Z,2.40
2023-04-20T22:16:10.302Z,2.29
2023-04-20T22:17:10.334Z,2.59
2023-04-20T22:18:10.250Z,2.29
2023-04-20T22:19:10.298Z,2.29
2023-04-20T22:20:10.264Z,2.20
2023-04-20T22:21:10.271Z,2.20
2023-04-20T22:22:10.183Z,2.40
2023-04-20T22:23:10.237Z,2.09
2023-04-20T22:24:10.162Z,2.59
2023-04-20T22:25:10.220Z,2.29
2023-04-20T22:26:10.190Z,2.29
2023-04-20T22:27:10.194Z,2.50
2023-04-20T22:28:10.122Z,2.40
2023-04-20T22:29:10.184Z,2.50
2023-04-20T22:30:10.106Z,2.59
2023-04-20T22:31:10.191Z,2.29
2023-04-20T22:32:10.076Z,2.50
2023-04-20T22:33:10.228Z,2.50
2023-04-20T22:34:10.056Z,2.40
2023-04-20T22:35:10.123Z,2.70
2023-04-20T22:36:10.031Z,2.29
2023-04-20T22:37:10.080Z,2.40
2023-04-20T22:38:10.008Z,2.20
2023-04-20T22:39:10.078Z,2.20
2023-04-20T22:40:09.992Z,2.29
2023-04-20T22:41:10.046Z,2.50
2023-04-20T22:42:09.962Z,2.40
2023-04-20T22:43:10.034Z,2.29
2023-04-20T22:44:09.938Z,2.29
2023-04-20T22:45:10.017Z,2.40
2023-04-20T22:46:10.030Z,2.40
2023-04-20T22:47:10.071Z,2.29
2023-04-20T22:48:09.970Z,2.59
2023-04-20T22:49:09.952Z,2.40
2023-04-20T22:50:09.868Z,2.29
2023-04-20T22:51:09.938Z,2.29
2023-04-20T22:52:09.865Z,2.09
2023-04-20T22:53:09.905Z,2.20
2023-04-20T22:54:09.842Z,2.29
2023-04-20T22:55:09.886Z,2.40
2023-04-20T22:56:09.818Z,2.40
2023-04-20T22:57:09.856Z,2.09
2023-04-20T22:58:09.797Z,2.40
2023-04-20T22:59:09.849Z,2.40
2023-04-20T23:00:09.776Z,2.40
2023-04-20T23:01:09.886Z,2.40
2023-04-20T23:02:09.871Z,2.50
2023-04-20T23:03:09.935Z,2.20
2023-04-20T23:04:09.855Z,2.29
2023-04-20T23:05:09.785Z,2.29
2023-04-20T23:06:09.702Z,2.29
2023-04-20T23:07:09.758Z,2.40
2023-04-20T23:08:09.683Z,2.50
2023-04-20T23:09:09.734Z,2.50
2023-04-20T23:10:09.662Z,2.50
2023-04-20T23:11:09.716Z,2.40
2023-04-20T23:12:09.629Z,2.40
2023-04-20T23:13:09.684Z,2.40